Wawa Airport
CYXZ : now visible

Airfield :











YOU CAN JOIN US ON...

 
LOGIN :

Register | Disclaimer

   EN    FR    IT 

 









Legend :    VFR   Marginal VFR   IFR   Intensive IFR   Very Intensive IFR
Visi :
Ceiling :
>= 8 km
>= 3000ft
5 to 8 km
1000 to 3000 ft
1500m to 5 km
500 to 1000 ft
800 to 1500m
200 to 500 ft
< 800m
< 200 ft
Symbols :   Thunderstorms  Fog  Heavy snow  Heavy precipitations  Wind > 20 kt






- Airport Elevation : 942 ft
- IATA code : YXZ


CYXZ - Wawa

CURRENT METAR :
  • 122200Z 04004KT 2SM -SN VV024 M10/M11 A3017 RMK SN8 SLP248

EXPIRED METARs :
  • 122100Z 05006KT 1 1/2SM -SN VV021 M10/M11 A3018 RMK SN8 /S02/ SLP251
  • 122000Z 02005KT 320V060 1 1/2SM -SN VV023 M10/M12 A3019 RMK SN8 /S01/ SUN DMLY VISBL SLP253
  • 121938Z 03007KT 1 1/2SM -SN VV027 M10/M12 A3020 RMK SN8 SUN DMLY VISBL SLP257

TAF TAF CYXZ
Valid from the 12 at 20:00 until the 13 at 00:00 UTC


121938Z 1220/1224 36005KT 1SM -SN VV012
TEMPO 1220/1222 3SM -SN OVC025
FM122200 04005KT 2SM -SN OVC020
TEMPO 1222/1224 6SM -SN OVC030
PROB30 1222/1224 1SM -SN VV012 RMK NXT FCST WILL BE ISSUED AT 131245Z



MET'MAP, your aeronautical weather chart ! - Copyright ORBIFLY December 2007 - Disclaimer

ORBIFLY MET'MAP TEAM :

Programming & Development : Alexandra Zaïnal
Concept & original design : Baudouin d'Aumeries
Assistance for programming : Marc-Olivier Méhu
Technical & hardware support : Manuel Goepfert

Contact : metmap@orbifly.com




SOURCES & CREDITS :

   NOAA       Earth
Advisory